sensor_id;sensor_type;location;lat;lon;timestamp;P1;durP1;ratioP1;P2;durP2;ratioP2
23169;SDS011;11753;43.144;24.714;2023-06-26T00:00:50;4.93;;;2.90;;
23169;SDS011;11753;43.144;24.714;2023-06-26T00:01:51;4.65;;;2.95;;
23169;SDS011;11753;43.144;24.714;2023-06-26T00:02:52;5.13;;;2.78;;
23169;SDS011;11753;43.144;24.714;2023-06-26T00:03:53;5.75;;;3.13;;
23169;SDS011;11753;43.144;24.714;2023-06-26T00:04:54;3.83;;;2.50;;
23169;SDS011;11753;43.144;24.714;2023-06-26T00:05:55;5.82;;;2.85;;
23169;SDS011;11753;43.144;24.714;2023-06-26T00:07:00;6.88;;;2.85;;
23169;SDS011;11753;43.144;24.714;2023-06-26T00:08:00;5.65;;;2.90;;
23169;SDS011;11753;43.144;24.714;2023-06-26T00:09:01;6.95;;;3.10;;
23169;SDS011;11753;43.144;24.714;2023-06-26T00:10:03;5.45;;;2.85;;
23169;SDS011;11753;43.144;24.714;2023-06-26T00:11:04;5.00;;;2.92;;
23169;SDS011;11753;43.144;24.714;2023-06-26T00:12:08;6.88;;;3.00;;
23169;SDS011;11753;43.144;24.714;2023-06-26T00:13:09;6.95;;;3.08;;
23169;SDS011;11753;43.144;24.714;2023-06-26T00:14:12;5.03;;;2.67;;
23169;SDS011;11753;43.144;24.714;2023-06-26T00:15:13;6.80;;;2.83;;
23169;SDS011;11753;43.144;24.714;2023-06-26T00:16:14;8.63;;;2.83;;
23169;SDS011;11753;43.144;24.714;2023-06-26T00:17:15;6.35;;;3.20;;
23169;SDS011;11753;43.144;24.714;2023-06-26T00:18:16;5.93;;;2.85;;
23169;SDS011;11753;43.144;24.714;2023-06-26T00:19:17;6.30;;;3.50;;
23169;SDS011;11753;43.144;24.714;2023-06-26T00:20:18;4.50;;;2.83;;
23169;SDS011;11753;43.144;24.714;2023-06-26T00:21:19;5.07;;;3.15;;
23169;SDS011;11753;43.144;24.714;2023-06-26T00:22:21;10.68;;;3.67;;
23169;SDS011;11753;43.144;24.714;2023-06-26T00:23:22;5.80;;;2.60;;
23169;SDS011;11753;43.144;24.714;2023-06-26T00:24:23;7.53;;;3.45;;
23169;SDS011;11753;43.144;24.714;2023-06-26T00:25:24;5.15;;;2.55;;
23169;SDS011;11753;43.144;24.714;2023-06-26T00:26:24;4.35;;;2.72;;
23169;SDS011;11753;43.144;24.714;2023-06-26T00:27:26;8.50;;;2.83;;
23169;SDS011;11753;43.144;24.714;2023-06-26T00:28:30;5.13;;;3.25;;
23169;SDS011;11753;43.144;24.714;2023-06-26T00:29:31;5.57;;;3.20;;
23169;SDS011;11753;43.144;24.714;2023-06-26T00:30:32;6.57;;;3.60;;
23169;SDS011;11753;43.144;24.714;2023-06-26T00:31:33;5.50;;;2.72;;
23169;SDS011;11753;43.144;24.714;2023-06-26T00:32:35;5.60;;;2.97;;
23169;SDS011;11753;43.144;24.714;2023-06-26T00:33:36;5.57;;;2.67;;
23169;SDS011;11753;43.144;24.714;2023-06-26T00:34:37;5.50;;;3.10;;
23169;SDS011;11753;43.144;24.714;2023-06-26T00:35:37;7.22;;;2.95;;
23169;SDS011;11753;43.144;24.714;2023-06-26T00:36:38;5.95;;;2.65;;
23169;SDS011;11753;43.144;24.714;2023-06-26T00:37:39;5.05;;;2.70;;
23169;SDS011;11753;43.144;24.714;2023-06-26T00:38:40;8.02;;;2.92;;
23169;SDS011;11753;43.144;24.714;2023-06-26T00:39:41;4.63;;;2.95;;
23169;SDS011;11753;43.144;24.714;2023-06-26T00:40:42;5.72;;;2.83;;
23169;SDS011;11753;43.144;24.714;2023-06-26T00:41:43;5.15;;;2.63;;
23169;SDS011;11753;43.144;24.714;2023-06-26T00:42:43;5.07;;;3.30;;
23169;SDS011;11753;43.144;24.714;2023-06-26T00:43:44;5.95;;;3.10;;
23169;SDS011;11753;43.144;24.714;2023-06-26T00:44:45;4.97;;;2.75;;
23169;SDS011;11753;43.144;24.714;2023-06-26T00:45:46;5.20;;;2.85;;
23169;SDS011;11753;43.144;24.714;2023-06-26T00:46:48;5.93;;;2.92;;
23169;SDS011;11753;43.144;24.714;2023-06-26T00:47:49;4.85;;;2.95;;
23169;SDS011;11753;43.144;24.714;2023-06-26T00:48:50;5.25;;;2.92;;
23169;SDS011;11753;43.144;24.714;2023-06-26T00:49:51;7.65;;;2.90;;
23169;SDS011;11753;43.144;24.714;2023-06-26T00:50:52;6.78;;;3.30;;
23169;SDS011;11753;43.144;24.714;2023-06-26T00:51:53;6.82;;;3.00;;
23169;SDS011;11753;43.144;24.714;2023-06-26T00:52:55;8.00;;;3.63;;
23169;SDS011;11753;43.144;24.714;2023-06-26T00:54:01;6.13;;;2.75;;
23169;SDS011;11753;43.144;24.714;2023-06-26T00:55:03;7.10;;;2.67;;
23169;SDS011;11753;43.144;24.714;2023-06-26T00:56:04;10.10;;;3.58;;
23169;SDS011;11753;43.144;24.714;2023-06-26T00:57:06;5.65;;;3.05;;
23169;SDS011;11753;43.144;24.714;2023-06-26T00:58:06;8.07;;;2.70;;
23169;SDS011;11753;43.144;24.714;2023-06-26T00:59:08;6.57;;;3.30;;
23169;SDS011;11753;43.144;24.714;2023-06-26T01:00:08;4.95;;;2.90;;
23169;SDS011;11753;43.144;24.714;2023-06-26T01:01:10;5.38;;;2.90;;
23169;SDS011;11753;43.144;24.714;2023-06-26T01:02:16;6.65;;;3.10;;
23169;SDS011;11753;43.144;24.714;2023-06-26T01:03:21;6.20;;;3.08;;
23169;SDS011;11753;43.144;24.714;2023-06-26T01:04:23;4.88;;;3.03;;
23169;SDS011;11753;43.144;24.714;2023-06-26T01:05:28;8.10;;;3.08;;
23169;SDS011;11753;43.144;24.714;2023-06-26T01:06:30;7.38;;;3.10;;
23169;SDS011;11753;43.144;24.714;2023-06-26T01:07:36;8.45;;;3.22;;
23169;SDS011;11753;43.144;24.714;2023-06-26T01:08:38;5.35;;;3.40;;
23169;SDS011;11753;43.144;24.714;2023-06-26T01:09:40;6.78;;;3.08;;
23169;SDS011;11753;43.144;24.714;2023-06-26T01:10:41;6.03;;;3.30;;
23169;SDS011;11753;43.144;24.714;2023-06-26T01:11:43;8.18;;;3.33;;
23169;SDS011;11753;43.144;24.714;2023-06-26T01:12:44;5.78;;;3.60;;
23169;SDS011;11753;43.144;24.714;2023-06-26T01:13:45;7.72;;;4.07;;
23169;SDS011;11753;43.144;24.714;2023-06-26T01:14:47;5.95;;;4.10;;
23169;SDS011;11753;43.144;24.714;2023-06-26T01:15:48;6.68;;;3.33;;
23169;SDS011;11753;43.144;24.714;2023-06-26T01:16:49;6.78;;;3.75;;
23169;SDS011;11753;43.144;24.714;2023-06-26T01:17:52;6.38;;;3.70;;
23169;SDS011;11753;43.144;24.714;2023-06-26T01:18:54;6.75;;;4.03;;
23169;SDS011;11753;43.144;24.714;2023-06-26T01:19:55;11.18;;;3.92;;
23169;SDS011;11753;43.144;24.714;2023-06-26T01:20:57;7.65;;;3.95;;
23169;SDS011;11753;43.144;24.714;2023-06-26T01:22:10;6.03;;;3.00;;
23169;SDS011;11753;43.144;24.714;2023-06-26T01:23:29;6.15;;;3.47;;
23169;SDS011;11753;43.144;24.714;2023-06-26T01:24:37;5.40;;;3.33;;
23169;SDS011;11753;43.144;24.714;2023-06-26T01:26:44;6.95;;;3.40;;
23169;SDS011;11753;43.144;24.714;2023-06-26T01:27:48;7.80;;;3.97;;
23169;SDS011;11753;43.144;24.714;2023-06-26T01:28:51;8.60;;;4.45;;
23169;SDS011;11753;43.144;24.714;2023-06-26T01:29:53;5.95;;;3.75;;
23169;SDS011;11753;43.144;24.714;2023-06-26T01:30:55;7.20;;;4.07;;
23169;SDS011;11753;43.144;24.714;2023-06-26T01:31:57;9.32;;;4.07;;
23169;SDS011;11753;43.144;24.714;2023-06-26T01:33:01;6.63;;;3.70;;
23169;SDS011;11753;43.144;24.714;2023-06-26T01:34:03;6.18;;;3.47;;
23169;SDS011;11753;43.144;24.714;2023-06-26T01:35:05;5.65;;;3.20;;
23169;SDS011;11753;43.144;24.714;2023-06-26T01:36:08;7.15;;;3.55;;
23169;SDS011;11753;43.144;24.714;2023-06-26T01:37:09;8.40;;;3.63;;
23169;SDS011;11753;43.144;24.714;2023-06-26T01:38:19;7.82;;;4.30;;
23169;SDS011;11753;43.144;24.714;2023-06-26T01:39:24;6.03;;;3.70;;
23169;SDS011;11753;43.144;24.714;2023-06-26T01:40:25;6.80;;;3.83;;
23169;SDS011;11753;43.144;24.714;2023-06-26T01:41:26;7.72;;;4.15;;
23169;SDS011;11753;43.144;24.714;2023-06-26T01:42:27;7.22;;;3.72;;
23169;SDS011;11753;43.144;24.714;2023-06-26T01:43:35;7.25;;;4.03;;
23169;SDS011;11753;43.144;24.714;2023-06-26T01:44:56;6.30;;;4.00;;
23169;SDS011;11753;43.144;24.714;2023-06-26T01:46:11;7.63;;;4.75;;
23169;SDS011;11753;43.144;24.714;2023-06-26T01:47:37;8.10;;;4.90;;
23169;SDS011;11753;43.144;24.714;2023-06-26T01:48:49;8.63;;;4.35;;
23169;SDS011;11753;43.144;24.714;2023-06-26T01:50:09;9.00;;;4.63;;
23169;SDS011;11753;43.144;24.714;2023-06-26T01:51:13;6.78;;;4.47;;
23169;SDS011;11753;43.144;24.714;2023-06-26T01:53:32;9.60;;;4.55;;
23169;SDS011;11753;43.144;24.714;2023-06-26T01:54:37;8.65;;;4.97;;
23169;SDS011;11753;43.144;24.714;2023-06-26T01:56:53;7.57;;;4.93;;
23169;SDS011;11753;43.144;24.714;2023-06-26T01:57:56;8.15;;;4.57;;
23169;SDS011;11753;43.144;24.714;2023-06-26T01:58:58;8.95;;;4.57;;
23169;SDS011;11753;43.144;24.714;2023-06-26T02:00:00;9.13;;;4.55;;
23169;SDS011;11753;43.144;24.714;2023-06-26T02:01:02;8.60;;;5.35;;
23169;SDS011;11753;43.144;24.714;2023-06-26T02:02:02;8.52;;;5.18;;
23169;SDS011;11753;43.144;24.714;2023-06-26T02:03:08;7.75;;;5.57;;
23169;SDS011;11753;43.144;24.714;2023-06-26T02:04:09;10.95;;;4.82;;
23169;SDS011;11753;43.144;24.714;2023-06-26T02:05:10;9.00;;;5.35;;
23169;SDS011;11753;43.144;24.714;2023-06-26T02:06:12;9.07;;;5.30;;
23169;SDS011;11753;43.144;24.714;2023-06-26T02:07:12;9.05;;;5.25;;
23169;SDS011;11753;43.144;24.714;2023-06-26T02:08:14;10.57;;;5.63;;
23169;SDS011;11753;43.144;24.714;2023-06-26T02:09:18;10.05;;;5.68;;
23169;SDS011;11753;43.144;24.714;2023-06-26T02:10:19;8.65;;;5.13;;
23169;SDS011;11753;43.144;24.714;2023-06-26T02:11:20;8.82;;;5.55;;
23169;SDS011;11753;43.144;24.714;2023-06-26T02:12:20;9.27;;;5.25;;
23169;SDS011;11753;43.144;24.714;2023-06-26T02:13:21;8.55;;;5.50;;
23169;SDS011;11753;43.144;24.714;2023-06-26T02:14:22;8.52;;;5.45;;
23169;SDS011;11753;43.144;24.714;2023-06-26T02:15:22;8.43;;;5.20;;
23169;SDS011;11753;43.144;24.714;2023-06-26T02:16:23;9.82;;;5.93;;
23169;SDS011;11753;43.144;24.714;2023-06-26T02:17:24;8.98;;;5.10;;
23169;SDS011;11753;43.144;24.714;2023-06-26T02:18:25;9.60;;;6.32;;
23169;SDS011;11753;43.144;24.714;2023-06-26T02:19:26;9.32;;;5.68;;
23169;SDS011;11753;43.144;24.714;2023-06-26T02:20:28;9.25;;;5.03;;
23169;SDS011;11753;43.144;24.714;2023-06-26T02:21:28;8.63;;;5.20;;
23169;SDS011;11753;43.144;24.714;2023-06-26T02:22:30;9.30;;;5.63;;
23169;SDS011;11753;43.144;24.714;2023-06-26T02:23:31;10.75;;;4.93;;
23169;SDS011;11753;43.144;24.714;2023-06-26T02:24:32;8.82;;;5.68;;
23169;SDS011;11753;43.144;24.714;2023-06-26T02:25:34;7.72;;;5.45;;
23169;SDS011;11753;43.144;24.714;2023-06-26T02:26:35;9.50;;;5.57;;
23169;SDS011;11753;43.144;24.714;2023-06-26T02:27:36;7.35;;;4.72;;
23169;SDS011;11753;43.144;24.714;2023-06-26T02:28:42;11.90;;;4.97;;
23169;SDS011;11753;43.144;24.714;2023-06-26T02:29:43;9.15;;;5.35;;
23169;SDS011;11753;43.144;24.714;2023-06-26T02:30:44;12.55;;;5.15;;
23169;SDS011;11753;43.144;24.714;2023-06-26T02:31:45;7.13;;;4.90;;
23169;SDS011;11753;43.144;24.714;2023-06-26T02:32:45;7.05;;;4.68;;
23169;SDS011;11753;43.144;24.714;2023-06-26T02:33:46;9.23;;;5.13;;
23169;SDS011;11753;43.144;24.714;2023-06-26T02:34:47;8.63;;;4.97;;
23169;SDS011;11753;43.144;24.714;2023-06-26T02:35:48;8.52;;;4.38;;
23169;SDS011;11753;43.144;24.714;2023-06-26T02:36:50;6.80;;;4.45;;
23169;SDS011;11753;43.144;24.714;2023-06-26T02:37:54;7.38;;;4.75;;
23169;SDS011;11753;43.144;24.714;2023-06-26T02:38:55;8.00;;;5.20;;
23169;SDS011;11753;43.144;24.714;2023-06-26T02:39:56;7.65;;;4.82;;
23169;SDS011;11753;43.144;24.714;2023-06-26T02:40:57;9.35;;;5.25;;
23169;SDS011;11753;43.144;24.714;2023-06-26T02:41:58;8.82;;;4.68;;
23169;SDS011;11753;43.144;24.714;2023-06-26T02:42:59;8.05;;;4.88;;
23169;SDS011;11753;43.144;24.714;2023-06-26T02:44:00;11.80;;;6.07;;
23169;SDS011;11753;43.144;24.714;2023-06-26T02:45:01;9.10;;;5.65;;
23169;SDS011;11753;43.144;24.714;2023-06-26T02:46:02;12.50;;;6.13;;
23169;SDS011;11753;43.144;24.714;2023-06-26T02:47:03;13.27;;;6.57;;
23169;SDS011;11753;43.144;24.714;2023-06-26T02:48:05;11.45;;;5.45;;
23169;SDS011;11753;43.144;24.714;2023-06-26T02:49:06;11.18;;;5.97;;
23169;SDS011;11753;43.144;24.714;2023-06-26T02:50:07;12.95;;;6.28;;
23169;SDS011;11753;43.144;24.714;2023-06-26T02:51:11;12.32;;;6.07;;
23169;SDS011;11753;43.144;24.714;2023-06-26T02:52:12;13.85;;;6.85;;
23169;SDS011;11753;43.144;24.714;2023-06-26T02:53:13;11.20;;;7.22;;
23169;SDS011;11753;43.144;24.714;2023-06-26T02:54:14;16.35;;;9.05;;
23169;SDS011;11753;43.144;24.714;2023-06-26T02:55:15;19.92;;;9.27;;
23169;SDS011;11753;43.144;24.714;2023-06-26T02:56:15;16.55;;;10.07;;
23169;SDS011;11753;43.144;24.714;2023-06-26T02:57:16;15.55;;;10.43;;
23169;SDS011;11753;43.144;24.714;2023-06-26T02:58:17;16.63;;;10.95;;
23169;SDS011;11753;43.144;24.714;2023-06-26T02:59:17;14.00;;;10.10;;
23169;SDS011;11753;43.144;24.714;2023-06-26T03:00:18;12.00;;;10.07;;
23169;SDS011;11753;43.144;24.714;2023-06-26T03:01:19;17.58;;;10.68;;
23169;SDS011;11753;43.144;24.714;2023-06-26T03:02:20;20.67;;;11.77;;
23169;SDS011;11753;43.144;24.714;2023-06-26T03:03:21;18.48;;;11.60;;
23169;SDS011;11753;43.144;24.714;2023-06-26T03:04:22;18.77;;;11.95;;
23169;SDS011;11753;43.144;24.714;2023-06-26T03:05:22;16.65;;;11.80;;
23169;SDS011;11753;43.144;24.714;2023-06-26T03:06:24;17.13;;;11.70;;
23169;SDS011;11753;43.144;24.714;2023-06-26T03:07:25;17.25;;;11.98;;
23169;SDS011;11753;43.144;24.714;2023-06-26T03:08:26;20.02;;;12.70;;
23169;SDS011;11753;43.144;24.714;2023-06-26T03:09:27;22.38;;;13.20;;
23169;SDS011;11753;43.144;24.714;2023-06-26T03:10:28;19.42;;;11.60;;
23169;SDS011;11753;43.144;24.714;2023-06-26T03:11:29;17.63;;;12.25;;
23169;SDS011;11753;43.144;24.714;2023-06-26T03:12:30;19.33;;;12.32;;
23169;SDS011;11753;43.144;24.714;2023-06-26T03:13:31;17.05;;;12.57;;
23169;SDS011;11753;43.144;24.714;2023-06-26T03:14:33;22.35;;;13.32;;
23169;SDS011;11753;43.144;24.714;2023-06-26T03:15:34;19.08;;;12.95;;
23169;SDS011;11753;43.144;24.714;2023-06-26T03:16:34;19.45;;;13.82;;
23169;SDS011;11753;43.144;24.714;2023-06-26T03:17:35;22.50;;;13.70;;
23169;SDS011;11753;43.144;24.714;2023-06-26T03:18:36;17.05;;;13.10;;
23169;SDS011;11753;43.144;24.714;2023-06-26T03:19:36;19.13;;;14.68;;
23169;SDS011;11753;43.144;24.714;2023-06-26T03:20:37;15.55;;;13.07;;
23169;SDS011;11753;43.144;24.714;2023-06-26T03:21:37;22.17;;;14.70;;
23169;SDS011;11753;43.144;24.714;2023-06-26T03:22:38;17.30;;;13.55;;
23169;SDS011;11753;43.144;24.714;2023-06-26T03:23:38;20.08;;;13.75;;
23169;SDS011;11753;43.144;24.714;2023-06-26T03:24:39;21.58;;;13.73;;
23169;SDS011;11753;43.144;24.714;2023-06-26T03:25:43;19.73;;;14.13;;
23169;SDS011;11753;43.144;24.714;2023-06-26T03:26:44;19.90;;;14.57;;
23169;SDS011;11753;43.144;24.714;2023-06-26T03:27:45;19.42;;;14.88;;
23169;SDS011;11753;43.144;24.714;2023-06-26T03:28:46;19.80;;;14.90;;
23169;SDS011;11753;43.144;24.714;2023-06-26T03:29:47;20.52;;;14.30;;
23169;SDS011;11753;43.144;24.714;2023-06-26T03:30:48;18.63;;;13.20;;
23169;SDS011;11753;43.144;24.714;2023-06-26T03:31:49;20.70;;;15.48;;
23169;SDS011;11753;43.144;24.714;2023-06-26T03:32:50;18.20;;;13.05;;
23169;SDS011;11753;43.144;24.714;2023-06-26T03:33:51;16.90;;;13.32;;
23169;SDS011;11753;43.144;24.714;2023-06-26T03:34:52;16.42;;;12.98;;
23169;SDS011;11753;43.144;24.714;2023-06-26T03:35:53;16.92;;;13.68;;
23169;SDS011;11753;43.144;24.714;2023-06-26T03:36:54;18.30;;;13.77;;
23169;SDS011;11753;43.144;24.714;2023-06-26T03:37:55;18.70;;;14.15;;
23169;SDS011;11753;43.144;24.714;2023-06-26T03:38:56;17.83;;;14.52;;
23169;SDS011;11753;43.144;24.714;2023-06-26T03:39:57;18.83;;;15.02;;
23169;SDS011;11753;43.144;24.714;2023-06-26T03:40:58;21.83;;;15.20;;
23169;SDS011;11753;43.144;24.714;2023-06-26T03:41:59;18.25;;;14.07;;
23169;SDS011;11753;43.144;24.714;2023-06-26T03:43:01;18.83;;;15.93;;
23169;SDS011;11753;43.144;24.714;2023-06-26T03:44:01;23.30;;;15.73;;
23169;SDS011;11753;43.144;24.714;2023-06-26T03:45:03;21.30;;;14.38;;
23169;SDS011;11753;43.144;24.714;2023-06-26T03:46:04;20.50;;;14.63;;
23169;SDS011;11753;43.144;24.714;2023-06-26T03:47:05;21.08;;;15.00;;
23169;SDS011;11753;43.144;24.714;2023-06-26T03:48:06;21.95;;;14.27;;
23169;SDS011;11753;43.144;24.714;2023-06-26T03:49:08;22.25;;;15.25;;
23169;SDS011;11753;43.144;24.714;2023-06-26T03:50:09;21.27;;;15.88;;
23169;SDS011;11753;43.144;24.714;2023-06-26T03:51:10;23.00;;;16.88;;
23169;SDS011;11753;43.144;24.714;2023-06-26T03:52:11;22.65;;;15.77;;
23169;SDS011;11753;43.144;24.714;2023-06-26T03:53:12;20.77;;;15.15;;
23169;SDS011;11753;43.144;24.714;2023-06-26T03:54:13;20.42;;;15.48;;
23169;SDS011;11753;43.144;24.714;2023-06-26T03:55:14;21.60;;;16.40;;
23169;SDS011;11753;43.144;24.714;2023-06-26T03:56:18;21.40;;;15.48;;
23169;SDS011;11753;43.144;24.714;2023-06-26T03:57:19;22.33;;;17.27;;
23169;SDS011;11753;43.144;24.714;2023-06-26T03:58:20;20.65;;;15.98;;
23169;SDS011;11753;43.144;24.714;2023-06-26T03:59:22;20.60;;;16.17;;
23169;SDS011;11753;43.144;24.714;2023-06-26T04:00:23;20.83;;;16.05;;
23169;SDS011;11753;43.144;24.714;2023-06-26T04:01:24;26.40;;;17.30;;
23169;SDS011;11753;43.144;24.714;2023-06-26T04:02:25;20.42;;;16.30;;
23169;SDS011;11753;43.144;24.714;2023-06-26T04:03:26;25.55;;;16.13;;
23169;SDS011;11753;43.144;24.714;2023-06-26T04:04:27;20.60;;;15.82;;
23169;SDS011;11753;43.144;24.714;2023-06-26T04:05:28;22.25;;;16.20;;
23169;SDS011;11753;43.144;24.714;2023-06-26T04:06:29;24.95;;;16.73;;
23169;SDS011;11753;43.144;24.714;2023-06-26T04:07:31;21.90;;;15.60;;
23169;SDS011;11753;43.144;24.714;2023-06-26T04:08:32;20.70;;;15.90;;
23169;SDS011;11753;43.144;24.714;2023-06-26T04:09:33;23.30;;;18.48;;
23169;SDS011;11753;43.144;24.714;2023-06-26T04:10:34;21.40;;;16.42;;
23169;SDS011;11753;43.144;24.714;2023-06-26T04:11:38;21.33;;;16.50;;
23169;SDS011;11753;43.144;24.714;2023-06-26T04:12:38;21.08;;;16.08;;
23169;SDS011;11753;43.144;24.714;2023-06-26T04:13:39;22.35;;;16.13;;
23169;SDS011;11753;43.144;24.714;2023-06-26T04:14:40;19.20;;;15.85;;
23169;SDS011;11753;43.144;24.714;2023-06-26T04:15:42;22.50;;;16.50;;
23169;SDS011;11753;43.144;24.714;2023-06-26T04:16:43;20.55;;;15.88;;
23169;SDS011;11753;43.144;24.714;2023-06-26T04:17:44;22.33;;;16.17;;
23169;SDS011;11753;43.144;24.714;2023-06-26T04:18:45;23.25;;;15.85;;
23169;SDS011;11753;43.144;24.714;2023-06-26T04:19:46;19.98;;;15.32;;
23169;SDS011;11753;43.144;24.714;2023-06-26T04:22:11;20.65;;;15.90;;
23169;SDS011;11753;43.144;24.714;2023-06-26T04:23:12;18.67;;;15.40;;
23169;SDS011;11753;43.144;24.714;2023-06-26T04:24:12;18.75;;;14.90;;
23169;SDS011;11753;43.144;24.714;2023-06-26T04:25:14;20.70;;;15.70;;
23169;SDS011;11753;43.144;24.714;2023-06-26T04:26:17;20.70;;;16.38;;
23169;SDS011;11753;43.144;24.714;2023-06-26T04:27:18;20.35;;;15.90;;
23169;SDS011;11753;43.144;24.714;2023-06-26T04:28:20;20.52;;;15.77;;
23169;SDS011;11753;43.144;24.714;2023-06-26T04:29:20;19.80;;;15.57;;
23169;SDS011;11753;43.144;24.714;2023-06-26T04:30:21;20.27;;;15.88;;
23169;SDS011;11753;43.144;24.714;2023-06-26T04:31:22;21.30;;;15.95;;
23169;SDS011;11753;43.144;24.714;2023-06-26T04:32:23;18.45;;;14.93;;
23169;SDS011;11753;43.144;24.714;2023-06-26T04:33:25;18.60;;;14.38;;
23169;SDS011;11753;43.144;24.714;2023-06-26T04:34:27;21.80;;;15.20;;
23169;SDS011;11753;43.144;24.714;2023-06-26T04:35:28;17.50;;;14.07;;
23169;SDS011;11753;43.144;24.714;2023-06-26T04:36:29;20.65;;;14.63;;
23169;SDS011;11753;43.144;24.714;2023-06-26T04:37:31;21.70;;;15.13;;
23169;SDS011;11753;43.144;24.714;2023-06-26T04:38:32;23.08;;;16.92;;
23169;SDS011;11753;43.144;24.714;2023-06-26T04:39:34;21.73;;;15.70;;
23169;SDS011;11753;43.144;24.714;2023-06-26T04:40:37;21.23;;;15.48;;
23169;SDS011;11753;43.144;24.714;2023-06-26T04:41:40;19.67;;;15.25;;
23169;SDS011;11753;43.144;24.714;2023-06-26T04:42:41;18.15;;;15.43;;
23169;SDS011;11753;43.144;24.714;2023-06-26T04:43:42;20.60;;;15.63;;
23169;SDS011;11753;43.144;24.714;2023-06-26T04:44:43;19.15;;;14.75;;
23169;SDS011;11753;43.144;24.714;2023-06-26T04:45:44;17.60;;;14.65;;
23169;SDS011;11753;43.144;24.714;2023-06-26T04:46:45;22.25;;;16.05;;
23169;SDS011;11753;43.144;24.714;2023-06-26T04:47:46;17.65;;;14.45;;
23169;SDS011;11753;43.144;24.714;2023-06-26T04:48:47;17.67;;;13.73;;
23169;SDS011;11753;43.144;24.714;2023-06-26T04:49:48;17.92;;;13.75;;
23169;SDS011;11753;43.144;24.714;2023-06-26T04:50:49;21.50;;;14.30;;
23169;SDS011;11753;43.144;24.714;2023-06-26T04:51:54;19.70;;;14.80;;
23169;SDS011;11753;43.144;24.714;2023-06-26T04:52:55;19.55;;;14.75;;
23169;SDS011;11753;43.144;24.714;2023-06-26T04:53:57;19.00;;;15.55;;
23169;SDS011;11753;43.144;24.714;2023-06-26T04:54:58;21.38;;;15.57;;
23169;SDS011;11753;43.144;24.714;2023-06-26T04:55:59;18.70;;;14.90;;
23169;SDS011;11753;43.144;24.714;2023-06-26T04:57:00;20.00;;;15.15;;
23169;SDS011;11753;43.144;24.714;2023-06-26T04:58:01;19.65;;;15.13;;
23169;SDS011;11753;43.144;24.714;2023-06-26T04:59:02;18.90;;;14.43;;
23169;SDS011;11753;43.144;24.714;2023-06-26T05:00:04;19.73;;;15.63;;
23169;SDS011;11753;43.144;24.714;2023-06-26T05:01:10;18.42;;;14.73;;
23169;SDS011;11753;43.144;24.714;2023-06-26T05:02:14;18.27;;;14.40;;
23169;SDS011;11753;43.144;24.714;2023-06-26T05:03:16;16.67;;;13.88;;
23169;SDS011;11753;43.144;24.714;2023-06-26T05:04:18;19.73;;;15.68;;
23169;SDS011;11753;43.144;24.714;2023-06-26T05:05:19;24.92;;;16.95;;
23169;SDS011;11753;43.144;24.714;2023-06-26T05:06:20;22.73;;;17.85;;
23169;SDS011;11753;43.144;24.714;2023-06-26T05:07:21;23.10;;;16.85;;
23169;SDS011;11753;43.144;24.714;2023-06-26T05:08:22;21.33;;;17.10;;
23169;SDS011;11753;43.144;24.714;2023-06-26T05:09:26;26.23;;;16.85;;
23169;SDS011;11753;43.144;24.714;2023-06-26T05:10:27;18.58;;;14.57;;
23169;SDS011;11753;43.144;24.714;2023-06-26T05:11:28;19.65;;;15.75;;
23169;SDS011;11753;43.144;24.714;2023-06-26T05:12:29;21.13;;;14.98;;
23169;SDS011;11753;43.144;24.714;2023-06-26T05:13:30;24.63;;;18.02;;
23169;SDS011;11753;43.144;24.714;2023-06-26T05:14:30;23.48;;;16.83;;
23169;SDS011;11753;43.144;24.714;2023-06-26T05:15:31;16.67;;;12.90;;
23169;SDS011;11753;43.144;24.714;2023-06-26T05:16:31;16.55;;;12.85;;
23169;SDS011;11753;43.144;24.714;2023-06-26T05:17:32;18.10;;;14.07;;
23169;SDS011;11753;43.144;24.714;2023-06-26T05:18:33;19.60;;;12.50;;
23169;SDS011;11753;43.144;24.714;2023-06-26T05:19:34;17.33;;;13.85;;
23169;SDS011;11753;43.144;24.714;2023-06-26T05:20:37;21.25;;;15.10;;
23169;SDS011;11753;43.144;24.714;2023-06-26T05:21:38;19.45;;;12.90;;
23169;SDS011;11753;43.144;24.714;2023-06-26T05:22:39;17.42;;;13.15;;
23169;SDS011;11753;43.144;24.714;2023-06-26T05:23:40;17.67;;;12.50;;
23169;SDS011;11753;43.144;24.714;2023-06-26T05:24:42;19.23;;;14.68;;
23169;SDS011;11753;43.144;24.714;2023-06-26T05:25:47;18.73;;;13.90;;
23169;SDS011;11753;43.144;24.714;2023-06-26T05:26:48;21.08;;;13.27;;
23169;SDS011;11753;43.144;24.714;2023-06-26T05:27:50;16.35;;;12.32;;
23169;SDS011;11753;43.144;24.714;2023-06-26T05:28:51;15.18;;;11.88;;
23169;SDS011;11753;43.144;24.714;2023-06-26T05:29:52;18.38;;;12.13;;
23169;SDS011;11753;43.144;24.714;2023-06-26T05:30:54;17.27;;;11.15;;
23169;SDS011;11753;43.144;24.714;2023-06-26T05:31:56;16.05;;;11.80;;
23169;SDS011;11753;43.144;24.714;2023-06-26T05:32:59;16.45;;;12.15;;
23169;SDS011;11753;43.144;24.714;2023-06-26T05:34:01;13.50;;;12.07;;
23169;SDS011;11753;43.144;24.714;2023-06-26T05:35:04;18.50;;;12.18;;
23169;SDS011;11753;43.144;24.714;2023-06-26T05:36:05;17.52;;;11.30;;
23169;SDS011;11753;43.144;24.714;2023-06-26T05:37:09;16.25;;;11.98;;
23169;SDS011;11753;43.144;24.714;2023-06-26T05:38:14;16.58;;;12.85;;
23169;SDS011;11753;43.144;24.714;2023-06-26T05:39:16;16.55;;;12.60;;
23169;SDS011;11753;43.144;24.714;2023-06-26T05:40:18;17.17;;;12.00;;
23169;SDS011;11753;43.144;24.714;2023-06-26T05:41:19;17.17;;;12.55;;
23169;SDS011;11753;43.144;24.714;2023-06-26T05:42:20;15.38;;;11.50;;
23169;SDS011;11753;43.144;24.714;2023-06-26T05:43:22;17.67;;;13.25;;
23169;SDS011;11753;43.144;24.714;2023-06-26T05:44:23;19.13;;;12.90;;
23169;SDS011;11753;43.144;24.714;2023-06-26T05:45:24;16.63;;;12.70;;
23169;SDS011;11753;43.144;24.714;2023-06-26T05:46:25;18.00;;;12.00;;
23169;SDS011;11753;43.144;24.714;2023-06-26T05:47:26;19.15;;;13.68;;
23169;SDS011;11753;43.144;24.714;2023-06-26T05:48:27;18.65;;;13.43;;
23169;SDS011;11753;43.144;24.714;2023-06-26T05:49:28;15.27;;;13.10;;
23169;SDS011;11753;43.144;24.714;2023-06-26T05:50:36;17.27;;;12.48;;
23169;SDS011;11753;43.144;24.714;2023-06-26T05:51:38;15.20;;;11.98;;
23169;SDS011;11753;43.144;24.714;2023-06-26T05:52:39;15.70;;;11.48;;
23169;SDS011;11753;43.144;24.714;2023-06-26T05:53:40;16.63;;;12.05;;
23169;SDS011;11753;43.144;24.714;2023-06-26T05:54:41;18.27;;;12.15;;
23169;SDS011;11753;43.144;24.714;2023-06-26T05:55:42;17.95;;;11.88;;
23169;SDS011;11753;43.144;24.714;2023-06-26T05:56:43;15.70;;;11.30;;
23169;SDS011;11753;43.144;24.714;2023-06-26T05:57:46;14.18;;;11.57;;
23169;SDS011;11753;43.144;24.714;2023-06-26T05:58:48;15.15;;;11.10;;
23169;SDS011;11753;43.144;24.714;2023-06-26T05:59:50;15.80;;;11.93;;
23169;SDS011;11753;43.144;24.714;2023-06-26T06:00:51;13.82;;;11.48;;
23169;SDS011;11753;43.144;24.714;2023-06-26T06:01:55;15.52;;;11.80;;
23169;SDS011;11753;43.144;24.714;2023-06-26T06:02:55;14.02;;;10.80;;
23169;SDS011;11753;43.144;24.714;2023-06-26T06:03:56;13.70;;;10.65;;
23169;SDS011;11753;43.144;24.714;2023-06-26T06:04:57;11.82;;;9.23;;
23169;SDS011;11753;43.144;24.714;2023-06-26T06:05:58;13.05;;;10.50;;
23169;SDS011;11753;43.144;24.714;2023-06-26T06:06:59;13.77;;;10.20;;